createdAt,value
2023-01-09T00:01:50.664Z,8.42
2023-01-09T00:04:20.064Z,8.39
2023-01-09T00:06:54.118Z,8.35
2023-01-09T00:09:23.638Z,8.54
2023-01-09T00:11:52.638Z,8.56
2023-01-09T00:14:22.825Z,8.45
2023-01-09T00:16:52.579Z,8.62
2023-01-09T00:19:21.006Z,8.60
2023-01-09T00:21:49.469Z,8.69
2023-01-09T00:24:17.889Z,8.62
2023-01-09T00:26:46.255Z,8.71
2023-01-09T00:29:14.653Z,8.67
2023-01-09T00:31:45.899Z,8.65
2023-01-09T00:34:15.627Z,8.57
2023-01-09T00:36:44.001Z,8.69
2023-01-09T00:39:12.444Z,8.70
2023-01-09T00:41:45.154Z,8.73
2023-01-09T00:44:17.732Z,8.73
2023-01-09T00:46:51.181Z,8.79
2023-01-09T00:49:21.422Z,8.74
2023-01-09T00:51:50.035Z,8.76
2023-01-09T00:54:20.629Z,8.78
2023-01-09T00:56:49.883Z,8.77
2023-01-09T00:59:18.408Z,8.78
2023-01-09T01:01:46.919Z,8.80
2023-01-09T01:04:32.987Z,8.78
2023-01-09T01:07:20.076Z,8.77
2023-01-09T01:09:48.517Z,8.69
2023-01-09T01:12:16.855Z,8.77
2023-01-09T01:14:45.248Z,8.72
2023-01-09T01:17:13.605Z,8.76
2023-01-09T01:19:42.054Z,8.75
2023-01-09T01:22:11.798Z,8.74
2023-01-09T01:24:40.146Z,8.69
2023-01-09T01:27:08.494Z,8.79
2023-01-09T01:29:36.931Z,8.63
2023-01-09T01:32:05.771Z,8.72
2023-01-09T01:34:34.226Z,8.79
2023-01-09T01:37:02.635Z,8.82
2023-01-09T01:39:32.352Z,8.84
2023-01-09T01:42:00.763Z,8.81
2023-01-09T01:45:00.708Z,8.81
2023-01-09T01:47:49.651Z,8.85
2023-01-09T01:50:28.701Z,8.87
2023-01-09T01:53:15.404Z,8.83
2023-01-09T01:55:54.872Z,8.82
2023-01-09T01:58:23.451Z,8.77
2023-01-09T02:00:51.910Z,8.80
2023-01-09T02:03:26.721Z,8.77
2023-01-09T02:05:55.278Z,8.72
2023-01-09T02:08:24.310Z,8.76
2023-01-09T02:10:55.027Z,8.73
2023-01-09T02:13:24.140Z,8.74
2023-01-09T02:16:16.558Z,8.74
2023-01-09T02:18:52.429Z,8.75
2023-01-09T02:21:34.235Z,8.75
2023-01-09T02:24:50.876Z,8.79
2023-01-09T02:28:19.245Z,8.74
2023-01-09T02:30:52.023Z,8.68
2023-01-09T02:33:47.451Z,8.67
2023-01-09T02:36:31.012Z,8.64
2023-01-09T02:39:17.694Z,8.55
2023-01-09T02:41:52.243Z,8.56
2023-01-09T02:44:24.309Z,8.60
2023-01-09T02:47:05.839Z,8.58
2023-01-09T02:49:36.800Z,8.61
2023-01-09T02:52:28.119Z,8.60
2023-01-09T02:55:10.596Z,8.56
2023-01-09T02:57:55.450Z,8.51
2023-01-09T03:00:38.600Z,8.53
2023-01-09T03:03:14.221Z,8.58
2023-01-09T03:05:48.681Z,8.51
2023-01-09T03:08:20.774Z,8.47
2023-01-09T03:10:54.753Z,8.45
2023-01-09T03:13:26.510Z,8.49
2023-01-09T03:15:57.106Z,8.48
2023-01-09T03:18:30.289Z,8.49
2023-01-09T03:20:58.747Z,8.43
2023-01-09T03:23:27.127Z,8.44
2023-01-09T03:25:55.485Z,8.44
2023-01-09T03:28:29.473Z,8.37
2023-01-09T03:30:57.835Z,8.40
2023-01-09T03:33:28.905Z,8.36
2023-01-09T03:35:57.319Z,8.38
2023-01-09T03:38:25.678Z,8.33
2023-01-09T03:40:54.113Z,8.37
2023-01-09T03:43:22.467Z,8.35
2023-01-09T03:45:50.998Z,8.42
2023-01-09T03:48:19.374Z,8.29
2023-01-09T03:50:51.405Z,8.43
2023-01-09T03:53:21.067Z,8.33
2023-01-09T03:55:51.811Z,8.41
2023-01-09T03:58:21.233Z,8.35
2023-01-09T04:00:50.981Z,8.36
2023-01-09T04:03:21.613Z,8.28
2023-01-09T04:05:51.434Z,8.14
2023-01-09T04:08:20.533Z,8.00
2023-01-09T04:10:50.589Z,8.07
2023-01-09T04:13:19.296Z,8.03
2023-01-09T04:15:47.828Z,7.98
2023-01-09T04:18:16.541Z,8.00
2023-01-09T04:20:48.043Z,8.02
2023-01-09T04:23:18.030Z,8.07
2023-01-09T04:25:47.691Z,8.02
2023-01-09T04:28:16.151Z,8.06
2023-01-09T04:30:44.636Z,8.16
2023-01-09T04:33:13.026Z,8.20
2023-01-09T04:35:41.456Z,8.18
2023-01-09T04:38:09.824Z,8.19
2023-01-09T04:40:39.606Z,8.04
2023-01-09T04:43:08.029Z,8.10
2023-01-09T04:45:36.418Z,8.11
2023-01-09T04:48:05.406Z,8.17
2023-01-09T04:50:33.786Z,8.18
2023-01-09T04:53:02.235Z,8.15
2023-01-09T04:55:30.805Z,8.10
2023-01-09T04:58:00.701Z,8.10
2023-01-09T05:00:29.087Z,8.10
2023-01-09T05:02:57.980Z,8.06
2023-01-09T05:05:26.329Z,7.99
2023-01-09T05:07:54.784Z,7.97
2023-01-09T05:10:23.190Z,7.96
2023-01-09T05:12:52.569Z,7.96
2023-01-09T05:15:22.320Z,7.94
2023-01-09T05:17:50.686Z,7.92
2023-01-09T05:20:19.243Z,7.84
2023-01-09T05:22:47.599Z,7.89
2023-01-09T05:25:16.148Z,7.87
2023-01-09T05:27:46.324Z,7.88
2023-01-09T05:30:18.009Z,7.91
2023-01-09T05:32:48.123Z,7.90
2023-01-09T05:35:16.681Z,7.92
2023-01-09T05:37:45.073Z,7.95
2023-01-09T05:40:14.480Z,7.94
2023-01-09T05:42:44.874Z,7.81
2023-01-09T05:45:13.869Z,7.81
2023-01-09T05:47:42.366Z,7.85
2023-01-09T05:50:13.590Z,7.74
2023-01-09T05:52:42.111Z,7.78
2023-01-09T05:55:11.160Z,7.71
2023-01-09T05:57:39.517Z,7.80
2023-01-09T06:00:09.812Z,7.83
2023-01-09T06:02:38.405Z,7.80
2023-01-09T06:05:08.628Z,7.83
2023-01-09T06:07:40.616Z,7.81
2023-01-09T06:10:12.984Z,7.79
2023-01-09T06:12:44.799Z,7.72
2023-01-09T06:15:15.495Z,7.72
2023-01-09T06:17:43.962Z,7.70
2023-01-09T06:20:13.235Z,7.72
2023-01-09T06:22:44.799Z,7.65
2023-01-09T06:25:13.652Z,7.67
2023-01-09T06:27:42.049Z,7.60
2023-01-09T06:30:12.463Z,7.65
2023-01-09T06:32:40.914Z,7.68
2023-01-09T06:35:10.454Z,7.61
2023-01-09T06:37:39.569Z,7.71
2023-01-09T06:40:11.997Z,7.76
2023-01-09T06:42:40.396Z,7.80
2023-01-09T06:45:09.804Z,7.79
2023-01-09T06:47:38.214Z,7.83
2023-01-09T06:50:08.128Z,7.82
2023-01-09T06:52:36.627Z,7.71
2023-01-09T06:55:10.449Z,7.80
2023-01-09T06:57:38.811Z,7.87
2023-01-09T07:00:09.535Z,7.82
2023-01-09T07:02:38.033Z,7.86
2023-01-09T07:05:08.756Z,7.88
2023-01-09T07:07:37.325Z,7.89
2023-01-09T07:10:06.854Z,7.86
2023-01-09T07:12:36.778Z,7.81
2023-01-09T07:15:06.332Z,7.87
2023-01-09T07:17:34.760Z,7.84
2023-01-09T07:20:04.284Z,7.78
2023-01-09T07:22:32.703Z,7.88
2023-01-09T07:25:01.212Z,7.85
2023-01-09T07:27:29.782Z,7.76
2023-01-09T07:29:59.516Z,7.87
2023-01-09T07:32:28.028Z,7.85
2023-01-09T07:34:56.481Z,7.79
2023-01-09T07:37:24.868Z,7.84
2023-01-09T07:39:53.656Z,7.86
2023-01-09T07:42:22.094Z,7.89
2023-01-09T07:44:50.571Z,7.74
2023-01-09T07:47:20.419Z,7.85
2023-01-09T07:49:48.802Z,8.16
2023-01-09T07:52:17.143Z,8.09
2023-01-09T07:54:45.919Z,8.04
2023-01-09T07:57:14.310Z,8.08
2023-01-09T07:59:42.820Z,8.20
2023-01-09T08:02:12.390Z,8.16
2023-01-09T08:04:42.279Z,8.01
2023-01-09T08:07:10.712Z,8.04
2023-01-09T08:09:39.187Z,8.04
2023-01-09T08:12:07.755Z,8.06
2023-01-09T08:14:36.209Z,8.05
2023-01-09T08:17:04.593Z,7.86
2023-01-09T08:19:33.108Z,8.15
2023-01-09T08:22:02.850Z,8.21
2023-01-09T08:24:32.848Z,8.22
2023-01-09T08:27:01.308Z,8.30
2023-01-09T08:29:30.489Z,8.19
2023-01-09T08:31:59.119Z,8.19
2023-01-09T08:34:27.704Z,8.25
2023-01-09T08:36:56.124Z,7.87
2023-01-09T08:39:25.951Z,7.95
2023-01-09T08:42:12.023Z,7.99
2023-01-09T08:44:57.910Z,7.97
2023-01-09T08:47:27.362Z,7.84
2023-01-09T08:49:55.733Z,7.98
2023-01-09T08:52:24.021Z,7.97
2023-01-09T08:54:53.835Z,8.17
2023-01-09T08:57:22.273Z,8.14
2023-01-09T08:59:50.620Z,8.16
2023-01-09T09:02:19.172Z,8.10
2023-01-09T09:04:48.114Z,8.16
2023-01-09T09:07:16.500Z,8.24
2023-01-09T09:09:44.917Z,8.21
2023-01-09T09:12:14.732Z,8.28
2023-01-09T09:15:00.599Z,8.25
2023-01-09T09:17:29.070Z,8.31
2023-01-09T09:19:57.510Z,8.15
2023-01-09T09:22:25.952Z,8.35
2023-01-09T09:24:54.660Z,8.51
2023-01-09T09:27:24.421Z,8.58
2023-01-09T09:29:52.774Z,8.48
2023-01-09T09:32:21.098Z,8.48
2023-01-09T09:34:49.474Z,8.41
2023-01-09T09:37:17.899Z,8.37
2023-01-09T09:39:46.450Z,8.46
2023-01-09T09:42:58.284Z,8.42
2023-01-09T09:45:39.501Z,8.49
2023-01-09T09:48:23.462Z,8.36
2023-01-09T09:51:26.649Z,8.36
2023-01-09T09:54:01.671Z,8.44
2023-01-09T09:56:36.248Z,8.42
2023-01-09T09:59:11.958Z,8.39
2023-01-09T10:01:44.567Z,8.41
2023-01-09T10:04:17.750Z,8.56
2023-01-09T10:06:48.904Z,8.50
2023-01-09T10:09:27.435Z,8.53
2023-01-09T10:12:01.442Z,8.67
2023-01-09T10:14:31.616Z,8.53
2023-01-09T10:17:19.925Z,8.43
2023-01-09T10:20:15.660Z,8.41
2023-01-09T10:22:57.012Z,8.54
2023-01-09T10:25:39.942Z,8.39
2023-01-09T10:28:27.928Z,8.35
2023-01-09T10:31:06.176Z,8.42
2023-01-09T10:33:52.770Z,8.43
2023-01-09T10:36:52.373Z,8.19
2023-01-09T10:39:24.915Z,8.30
2023-01-09T10:42:00.715Z,8.36
2023-01-09T10:44:36.586Z,8.47
2023-01-09T10:47:16.984Z,8.40
2023-01-09T10:49:48.386Z,8.96
2023-01-09T10:52:20.577Z,8.74
2023-01-09T10:54:57.268Z,8.79
2023-01-09T10:57:41.991Z,8.69
2023-01-09T11:00:21.579Z,8.75
2023-01-09T11:02:54.803Z,8.73
2023-01-09T11:05:27.902Z,8.73
2023-01-09T11:08:03.151Z,8.77
2023-01-09T11:10:48.952Z,8.92
2023-01-09T11:13:23.048Z,9.17
2023-01-09T11:16:09.369Z,9.44
2023-01-09T11:18:49.758Z,9.12
2023-01-09T11:21:36.037Z,9.22
2023-01-09T11:24:31.023Z,9.04
2023-01-09T11:27:24.469Z,9.03
2023-01-09T11:30:31.508Z,9.05
2023-01-09T11:33:00.941Z,9.09
2023-01-09T11:35:34.816Z,9.02
2023-01-09T11:38:08.949Z,9.11
2023-01-09T11:40:47.847Z,9.25
2023-01-09T11:43:21.912Z,9.82
2023-01-09T11:46:01.200Z,10.30
2023-01-09T11:48:44.609Z,10.18
2023-01-09T11:51:24.601Z,10.32
2023-01-09T11:54:09.050Z,10.39
2023-01-09T11:56:38.428Z,10.30
2023-01-09T11:59:13.194Z,10.22
2023-01-09T12:02:24.202Z,10.53
2023-01-09T12:04:56.403Z,10.70
2023-01-09T12:08:06.115Z,10.77
2023-01-09T12:11:22.658Z,10.95
2023-01-09T12:14:25.197Z,10.63
2023-01-09T12:17:16.661Z,10.52
2023-01-09T12:20:03.016Z,10.13
2023-01-09T12:22:40.021Z,9.92
2023-01-09T12:25:23.390Z,9.77
2023-01-09T12:28:17.581Z,9.60
2023-01-09T12:31:04.334Z,9.39
2023-01-09T12:33:55.340Z,9.35
2023-01-09T12:36:33.996Z,9.31
2023-01-09T12:39:12.640Z,9.16
2023-01-09T12:42:08.985Z,9.16
2023-01-09T12:45:03.715Z,9.22
2023-01-09T12:47:48.017Z,9.12
2023-01-09T12:50:37.587Z,9.08
2023-01-09T12:53:18.137Z,9.12
2023-01-09T12:55:52.670Z,9.16
2023-01-09T12:58:33.685Z,9.31
2023-01-09T13:01:07.409Z,9.14
2023-01-09T13:03:40.271Z,9.22
2023-01-09T13:06:14.095Z,9.42
2023-01-09T13:08:47.625Z,9.42
2023-01-09T13:11:21.759Z,9.63
2023-01-09T13:13:59.777Z,9.72
2023-01-09T13:16:34.295Z,9.77
2023-01-09T13:19:11.270Z,9.62
2023-01-09T13:21:40.525Z,9.57
2023-01-09T13:24:18.180Z,9.49
2023-01-09T13:26:51.254Z,9.21
2023-01-09T13:29:28.711Z,9.41
2023-01-09T13:32:34.867Z,9.46
2023-01-09T13:35:03.415Z,9.53
2023-01-09T13:37:36.199Z,9.42
2023-01-09T13:40:08.708Z,9.28
2023-01-09T13:42:39.034Z,9.38
2023-01-09T13:45:25.910Z,9.15
2023-01-09T13:48:26.633Z,9.13
2023-01-09T13:51:33.669Z,9.19
2023-01-09T13:54:02.132Z,9.28
2023-01-09T13:56:30.518Z,9.22
2023-01-09T13:59:06.282Z,9.27
2023-01-09T14:01:53.669Z,9.26
2023-01-09T14:04:53.604Z,9.27
2023-01-09T14:07:27.611Z,9.26
2023-01-09T14:10:09.427Z,9.24
2023-01-09T14:12:42.376Z,9.28
2023-01-09T14:15:27.251Z,9.25
2023-01-09T14:18:04.165Z,9.22
2023-01-09T14:20:39.861Z,9.18
2023-01-09T14:23:42.259Z,9.02
2023-01-09T14:25:58.046Z,9.12
2023-01-09T14:28:28.323Z,9.08
2023-01-09T14:31:12.004Z,9.09
2023-01-09T14:33:41.909Z,9.05
2023-01-09T14:36:16.770Z,8.91
2023-01-09T14:38:47.897Z,8.88
2023-01-09T14:41:49.177Z,8.82
2023-01-09T14:44:29.857Z,8.92
2023-01-09T14:47:39.099Z,8.83
2023-01-09T14:50:29.121Z,8.82
2023-01-09T14:53:05.672Z,8.81
2023-01-09T14:55:44.197Z,8.75
2023-01-09T14:58:18.519Z,8.73
2023-01-09T15:00:55.827Z,8.69
2023-01-09T15:03:26.618Z,8.67
2023-01-09T15:05:56.765Z,8.71
2023-01-09T15:08:29.115Z,8.69
2023-01-09T15:10:59.852Z,8.69
2023-01-09T15:13:36.380Z,8.64
2023-01-09T15:16:07.735Z,8.70
2023-01-09T15:18:43.129Z,8.69
2023-01-09T15:21:21.143Z,8.64
2023-01-09T15:23:49.734Z,8.65
2023-01-09T15:26:27.494Z,8.59
2023-01-09T15:29:03.752Z,8.62
2023-01-09T15:31:32.319Z,8.62
2023-01-09T15:34:00.885Z,8.60
2023-01-09T15:36:31.713Z,8.44
2023-01-09T15:39:01.372Z,8.59
2023-01-09T15:41:48.719Z,8.55
2023-01-09T15:44:22.598Z,8.58
2023-01-09T15:46:52.183Z,8.61
2023-01-09T15:49:21.243Z,8.49
2023-01-09T15:51:51.902Z,8.52
2023-01-09T15:54:28.579Z,8.50
2023-01-09T15:57:27.541Z,8.54
2023-01-09T15:59:57.654Z,8.41
2023-01-09T16:02:45.277Z,8.40
2023-01-09T16:05:17.456Z,8.40
2023-01-09T16:07:49.252Z,8.40
2023-01-09T16:10:25.862Z,8.33
2023-01-09T16:12:54.973Z,8.28
2023-01-09T16:15:23.566Z,8.31
2023-01-09T16:18:08.355Z,8.35
2023-01-09T16:20:38.279Z,8.31
2023-01-09T16:23:24.237Z,8.29
2023-01-09T16:26:06.226Z,8.30
2023-01-09T16:28:34.720Z,8.18
2023-01-09T16:31:08.259Z,8.17
2023-01-09T16:33:36.940Z,8.10
2023-01-09T16:36:07.290Z,8.16
2023-01-09T16:38:37.097Z,8.10
2023-01-09T16:41:25.240Z,7.99
2023-01-09T16:43:53.948Z,8.13
2023-01-09T16:46:23.509Z,8.09
2023-01-09T16:48:51.952Z,8.12
2023-01-09T16:51:22.725Z,8.07
2023-01-09T16:53:52.730Z,8.11
2023-01-09T16:56:23.843Z,8.09
2023-01-09T16:58:53.458Z,8.11
2023-01-09T17:01:22.819Z,8.04
2023-01-09T17:03:52.520Z,8.01
2023-01-09T17:06:26.198Z,8.06
2023-01-09T17:08:56.191Z,8.08
2023-01-09T17:11:32.006Z,7.97
2023-01-09T17:14:01.044Z,7.98
2023-01-09T17:16:30.224Z,7.97
2023-01-09T17:18:58.901Z,7.93
2023-01-09T17:21:30.731Z,7.99
2023-01-09T17:24:18.626Z,7.96
2023-01-09T17:27:07.892Z,7.98
2023-01-09T17:29:36.728Z,7.94
2023-01-09T17:32:05.526Z,7.98
2023-01-09T17:34:34.453Z,7.90
2023-01-09T17:37:04.543Z,7.88
2023-01-09T17:39:34.546Z,7.89
2023-01-09T17:42:03.130Z,7.71
2023-01-09T17:44:31.540Z,7.80
2023-01-09T17:47:00.011Z,7.79
2023-01-09T17:49:28.537Z,7.74
2023-01-09T17:51:56.980Z,7.79
2023-01-09T17:54:25.396Z,7.82
2023-01-09T17:56:55.527Z,7.74
2023-01-09T17:59:24.767Z,7.76
2023-01-09T18:01:53.818Z,7.75
2023-01-09T18:04:22.284Z,7.74
2023-01-09T18:06:50.740Z,7.69
2023-01-09T18:09:19.519Z,7.56
2023-01-09T18:11:48.767Z,7.52
2023-01-09T18:14:18.686Z,7.55
2023-01-09T18:16:47.334Z,7.64
2023-01-09T18:19:15.981Z,7.52
2023-01-09T18:21:46.831Z,7.48
2023-01-09T18:24:15.482Z,7.55
2023-01-09T18:26:43.870Z,7.56
2023-01-09T18:29:13.997Z,7.51
2023-01-09T18:31:44.215Z,7.55
2023-01-09T18:34:12.798Z,7.57
2023-01-09T18:36:41.283Z,7.45
2023-01-09T18:39:11.092Z,7.52
2023-01-09T18:41:39.565Z,7.51
2023-01-09T18:44:08.147Z,7.46
2023-01-09T18:46:39.334Z,7.49
2023-01-09T18:49:10.650Z,7.36
2023-01-09T18:51:39.157Z,7.33
2023-01-09T18:54:08.684Z,7.40
2023-01-09T18:56:37.473Z,7.36
2023-01-09T18:59:06.229Z,7.41
2023-01-09T19:01:34.762Z,7.41
2023-01-09T19:04:03.404Z,7.43
2023-01-09T19:06:33.641Z,7.34
2023-01-09T19:09:02.309Z,7.24
2023-01-09T19:11:30.765Z,7.33
2023-01-09T19:13:59.207Z,7.22
2023-01-09T19:16:27.702Z,7.21
2023-01-09T19:18:57.427Z,7.36
2023-01-09T19:21:26.868Z,7.22
2023-01-09T19:23:58.928Z,7.31
2023-01-09T19:26:30.876Z,7.29
2023-01-09T19:28:59.357Z,7.12
2023-01-09T19:31:29.821Z,7.12
2023-01-09T19:33:59.210Z,7.07
2023-01-09T19:36:28.701Z,7.18
2023-01-09T19:38:59.716Z,7.06
2023-01-09T19:41:29.243Z,6.93
2023-01-09T19:43:58.107Z,7.07
2023-01-09T19:46:28.483Z,7.12
2023-01-09T19:48:59.025Z,7.00
2023-01-09T19:51:27.612Z,7.04
2023-01-09T19:56:29.637Z,7.11
2023-01-09T19:59:00.980Z,7.12
2023-01-09T20:01:31.941Z,7.14
2023-01-09T20:04:03.355Z,7.17
2023-01-09T20:06:32.723Z,7.03
2023-01-09T20:09:05.545Z,7.10
2023-01-09T20:11:35.033Z,7.15
2023-01-09T20:14:03.480Z,7.21
2023-01-09T20:16:32.439Z,7.22
2023-01-09T20:19:04.238Z,7.19
2023-01-09T20:21:32.750Z,7.16
2023-01-09T20:24:04.953Z,7.16
2023-01-09T20:26:34.798Z,7.11
2023-01-09T20:29:04.049Z,7.08
2023-01-09T20:31:33.143Z,7.01
2023-01-09T20:34:02.020Z,7.01
2023-01-09T20:36:31.973Z,6.96
2023-01-09T20:39:03.898Z,6.84
2023-01-09T20:41:32.627Z,6.84
2023-01-09T20:44:03.560Z,6.81
2023-01-09T20:46:35.014Z,6.77
2023-01-09T20:49:06.491Z,6.82
2023-01-09T20:51:35.207Z,6.71
2023-01-09T20:54:05.565Z,6.72
2023-01-09T20:56:36.217Z,6.74
2023-01-09T20:59:06.392Z,6.63
2023-01-09T21:01:36.768Z,6.67
2023-01-09T21:04:05.745Z,6.57
2023-01-09T21:06:34.387Z,6.60
2023-01-09T21:09:11.853Z,6.46
2023-01-09T21:11:42.957Z,6.53
2023-01-09T21:14:17.891Z,6.59
2023-01-09T21:16:54.579Z,6.67
2023-01-09T21:19:28.001Z,6.46
2023-01-09T21:21:56.686Z,6.64
2023-01-09T21:24:30.877Z,6.50
2023-01-09T21:27:10.617Z,6.59
2023-01-09T21:29:43.257Z,6.48
2023-01-09T21:32:14.028Z,6.56
2023-01-09T21:34:43.369Z,6.59
2023-01-09T21:37:20.004Z,6.61
2023-01-09T21:40:02.999Z,6.64
2023-01-09T21:42:50.543Z,6.66
2023-01-09T21:45:37.293Z,6.58
2023-01-09T21:48:07.374Z,6.60
2023-01-09T21:50:36.544Z,6.61
2023-01-09T21:53:18.257Z,6.48
2023-01-09T21:55:55.531Z,6.51
2023-01-09T21:58:24.656Z,6.46
2023-01-09T22:01:00.649Z,6.58
2023-01-09T22:03:33.927Z,6.57
2023-01-09T22:06:05.257Z,6.70
2023-01-09T22:08:33.795Z,6.76
2023-01-09T22:11:04.713Z,6.73
2023-01-09T22:13:33.434Z,6.75
2023-01-09T22:16:05.883Z,6.59
2023-01-09T22:18:36.440Z,6.68
2023-01-09T22:21:05.513Z,6.69
2023-01-09T22:23:33.943Z,6.48
2023-01-09T22:26:10.467Z,6.47
2023-01-09T22:28:38.987Z,6.55
2023-01-09T22:31:10.771Z,6.52
2023-01-09T22:33:39.489Z,6.53
2023-01-09T22:36:10.309Z,6.41
2023-01-09T22:38:40.621Z,6.43
2023-01-09T22:41:10.443Z,6.35
2023-01-09T22:43:39.175Z,6.41
2023-01-09T22:46:11.497Z,6.40
2023-01-09T22:48:42.092Z,6.44
2023-01-09T22:51:14.909Z,6.46
2023-01-09T22:53:44.139Z,6.38
2023-01-09T22:56:17.414Z,6.38
2023-01-09T22:58:46.381Z,6.34
2023-01-09T23:01:14.953Z,6.33
2023-01-09T23:03:43.434Z,6.36
2023-01-09T23:06:14.941Z,6.41
2023-01-09T23:08:43.724Z,6.45
2023-01-09T23:11:38.311Z,6.48
2023-01-09T23:14:07.279Z,6.37
2023-01-09T23:16:35.738Z,6.46
2023-01-09T23:19:07.035Z,6.44
2023-01-09T23:21:35.546Z,6.54
2023-01-09T23:24:04.160Z,6.51
2023-01-09T23:26:34.583Z,6.48
2023-01-09T23:29:06.990Z,6.56
2023-01-09T23:31:35.830Z,6.54
2023-01-09T23:34:08.106Z,6.51
2023-01-09T23:36:36.811Z,6.59
2023-01-09T23:39:09.022Z,6.61
2023-01-09T23:42:04.998Z,6.60
2023-01-09T23:44:35.669Z,6.55
2023-01-09T23:47:04.429Z,6.63
2023-01-09T23:49:32.794Z,6.52
2023-01-09T23:52:02.455Z,6.46
2023-01-09T23:54:30.977Z,6.37
2023-01-09T23:57:00.707Z,6.43
2023-01-09T23:59:29.290Z,6.44
